SPCBI EPKK-EPGD
Flight info
| Callsign | SPCBI |
|---|---|
| Flight time | N/A |
| Altitude | 14000 |
| Route | EPKK/25 DCT EPKKZ DCT EPKKI DCT EPGDW DCT EPGDX DCT EPGDS DCT EPGD/29 |
| Aircraft | SF50/L-SBDGRWY/LB2U2 |
Departure
| Time | 2026-05-04 20:01 |
|---|---|
| Airport | Kraków John Paul II International Airport (EPKK) |
Arrival
| Time | N/A |
|---|---|
| Airport | Gdańsk Lech Wałęsa Airport (EPGD) |
| Time | Latitude | Longitude | Altitude | Speed | Heading |
|---|---|---|---|---|---|
| 2026-05-04 19:49 | 50.07676 | 19.80012 | 794 ft | 0 kts | 348° |
| 2026-05-04 19:57 | 50.07693 | 19.80005 | 794 ft | 7 kts | 345° |
| 2026-05-04 19:58 | 50.07741 | 19.80073 | 794 ft | 17 kts | 77° |
| 2026-05-04 19:58 | 50.07761 | 19.80205 | 794 ft | 21 kts | 77° |
| 2026-05-04 19:58 | 50.07853 | 19.80333 | 794 ft | 0 kts | 346° |
| 2026-05-04 19:58 | 50.07857 | 19.80332 | 794 ft | 4 kts | 346° |
| 2026-05-04 19:59 | 50.07938 | 19.80304 | 794 ft | 19 kts | 348° |
| 2026-05-04 19:59 | 50.08016 | 19.80233 | 794 ft | 19 kts | 283° |
| 2026-05-04 19:59 | 50.08014 | 19.80204 | 794 ft | 0 kts | 256° |
| 2026-05-04 20:00 | 50.08011 | 19.80188 | 794 ft | 14 kts | 255° |
| 2026-05-04 20:00 | 50.07975 | 19.79936 | 794 ft | 57 kts | 258° |
| 2026-05-04 20:00 | 50.07797 | 19.78894 | 1014 ft | 87 kts | 254° |
| 2026-05-04 20:00 | 50.07802 | 19.78251 | 1232 ft | 98 kts | 297° |
| 2026-05-04 20:01 | 50.08310 | 19.77437 | 1585 ft | 113 kts | 307° |
| 2026-05-04 20:01 | 50.08788 | 19.76339 | 1890 ft | 132 kts | 301° |
| 2026-05-04 20:01 | 50.09398 | 19.75083 | 1979 ft | 160 kts | 303° |
| 2026-05-04 20:01 | 50.10102 | 19.73605 | 1970 ft | 178 kts | 302° |
| 2026-05-04 20:02 | 50.10829 | 19.72036 | 1971 ft | 174 kts | 302° |
| 2026-05-04 20:02 | 50.11500 | 19.70623 | 1953 ft | 155 kts | 302° |
| 2026-05-04 20:02 | 50.12128 | 19.69299 | 1958 ft | 149 kts | 304° |
| 2026-05-04 20:02 | 50.12729 | 19.68033 | 1946 ft | 143 kts | 303° |
| 2026-05-04 20:03 | 50.13318 | 19.66789 | 1947 ft | 142 kts | 303° |
| 2026-05-04 20:03 | 50.13911 | 19.65536 | 1948 ft | 145 kts | 303° |
| 2026-05-04 20:03 | 50.14514 | 19.64271 | 1954 ft | 144 kts | 304° |
| 2026-05-04 20:03 | 50.15274 | 19.63290 | 1947 ft | 146 kts | 331° |
| 2026-05-04 20:04 | 50.16285 | 19.62911 | 1949 ft | 149 kts | 351° |
| 2026-05-04 20:04 | 50.17300 | 19.62684 | 1952 ft | 149 kts | 347° |
| 2026-05-04 20:04 | 50.18321 | 19.62418 | 1955 ft | 149 kts | 346° |
| 2026-05-04 20:04 | 50.19372 | 19.62158 | 1954 ft | 153 kts | 343° |
| 2026-05-04 20:05 | 50.20415 | 19.61854 | 1902 ft | 160 kts | 345° |
| 2026-05-04 20:05 | 50.21586 | 19.61520 | 1993 ft | 176 kts | 345° |
| 2026-05-04 20:05 | 50.22831 | 19.61370 | 2166 ft | 184 kts | 352° |
| 2026-05-04 20:05 | 50.24075 | 19.61075 | 2891 ft | 179 kts | 341° |
| 2026-05-04 20:06 | 50.25301 | 19.60664 | 3569 ft | 181 kts | 342° |
| 2026-05-04 20:06 | 50.26548 | 19.60334 | 4234 ft | 183 kts | 344° |
| 2026-05-04 20:06 | 50.27811 | 19.60011 | 4905 ft | 185 kts | 344° |
| 2026-05-04 20:06 | 50.29088 | 19.59683 | 5573 ft | 187 kts | 345° |
| 2026-05-04 20:07 | 50.30375 | 19.59348 | 6182 ft | 193 kts | 345° |
| 2026-05-04 20:07 | 50.31805 | 19.58962 | 6228 ft | 222 kts | 346° |
| 2026-05-04 20:07 | 50.33421 | 19.58543 | 6226 ft | 247 kts | 347° |
| 2026-05-04 20:07 | 50.35056 | 19.58123 | 6226 ft | 257 kts | 347° |
| 2026-05-04 20:08 | 50.36653 | 19.57712 | 6226 ft | 259 kts | 347° |
| 2026-05-04 20:08 | 50.38225 | 19.57302 | 6228 ft | 260 kts | 346° |
| 2026-05-04 20:08 | 50.39994 | 19.56840 | 6222 ft | 262 kts | 346° |
| 2026-05-04 20:08 | 50.41776 | 19.56528 | 6207 ft | 265 kts | 360° |
| 2026-05-04 20:09 | 50.43480 | 19.57567 | 6202 ft | 272 kts | 36° |
| 2026-05-04 20:09 | 50.44702 | 19.59819 | 6207 ft | 272 kts | 56° |
| 2026-05-04 20:09 | 50.45723 | 19.62334 | 6211 ft | 275 kts | 58° |
| 2026-05-04 20:09 | 50.46717 | 19.64884 | 6211 ft | 273 kts | 59° |
| 2026-05-04 20:10 | 50.47701 | 19.67422 | 6210 ft | 272 kts | 59° |
| 2026-05-04 20:10 | 50.48687 | 19.69970 | 6208 ft | 273 kts | 59° |
| 2026-05-04 20:10 | 50.49686 | 19.72499 | 6210 ft | 273 kts | 56° |
| 2026-05-04 20:10 | 50.50849 | 19.74811 | 6583 ft | 262 kts | 46° |
| 2026-05-04 20:11 | 50.52122 | 19.76651 | 7518 ft | 235 kts | 37° |
| 2026-05-04 20:11 | 50.53390 | 19.78022 | 8581 ft | 208 kts | 27° |
| 2026-05-04 20:11 | 50.54693 | 19.78810 | 9406 ft | 200 kts | 11° |
| 2026-05-04 20:11 | 50.56145 | 19.79314 | 9494 ft | 227 kts | 9° |
| 2026-05-04 20:12 | 50.57774 | 19.79901 | 9503 ft | 253 kts | 11° |
| 2026-05-04 20:12 | 50.59537 | 19.80607 | 9497 ft | 269 kts | 12° |
| 2026-05-04 20:12 | 50.61352 | 19.81332 | 9495 ft | 275 kts | 11° |
| 2026-05-04 20:12 | 50.63221 | 19.82062 | 9495 ft | 277 kts | 11° |
| 2026-05-04 20:13 | 50.65095 | 19.82796 | 9491 ft | 278 kts | 11° |
| 2026-05-04 20:13 | 50.66972 | 19.83535 | 9491 ft | 278 kts | 11° |
| 2026-05-04 20:13 | 50.68853 | 19.84274 | 9492 ft | 279 kts | 11° |
| 2026-05-04 20:13 | 50.70734 | 19.85018 | 9492 ft | 279 kts | 11° |
| 2026-05-04 20:14 | 50.72621 | 19.85761 | 9491 ft | 279 kts | 11° |
| 2026-05-04 20:14 | 50.74500 | 19.86502 | 9492 ft | 279 kts | 11° |
| 2026-05-04 20:14 | 50.76380 | 19.87246 | 9492 ft | 279 kts | 11° |
| 2026-05-04 20:14 | 50.78265 | 19.87987 | 9486 ft | 279 kts | 11° |
| 2026-05-04 20:15 | 50.80147 | 19.88730 | 9487 ft | 279 kts | 11° |
| 2026-05-04 20:15 | 50.82033 | 19.89478 | 9486 ft | 279 kts | 11° |
| 2026-05-04 20:15 | 50.83908 | 19.90218 | 9487 ft | 279 kts | 11° |
| 2026-05-04 20:15 | 50.85799 | 19.90968 | 9486 ft | 279 kts | 11° |
| 2026-05-04 20:16 | 50.87689 | 19.91115 | 9465 ft | 271 kts | 343° |
| 2026-05-04 20:16 | 50.89404 | 19.89983 | 9478 ft | 266 kts | 330° |
| 2026-05-04 20:16 | 50.91079 | 19.88788 | 9475 ft | 269 kts | 335° |
| 2026-05-04 20:16 | 50.92875 | 19.87908 | 9474 ft | 271 kts | 343° |
| 2026-05-04 20:17 | 50.94745 | 19.87454 | 9470 ft | 273 kts | 352° |
| 2026-05-04 20:17 | 50.96650 | 19.87603 | 9468 ft | 276 kts | 6° |
| 2026-05-04 20:17 | 50.98520 | 19.88292 | 9467 ft | 277 kts | 12° |
| 2026-05-04 20:17 | 51.00389 | 19.89032 | 9467 ft | 276 kts | 9° |
| 2026-05-04 20:18 | 51.02276 | 19.89594 | 9468 ft | 276 kts | 6° |
| 2026-05-04 20:18 | 51.04169 | 19.90120 | 9468 ft | 276 kts | 7° |
| 2026-05-04 20:18 | 51.06056 | 19.90701 | 9472 ft | 277 kts | 8° |
| 2026-05-04 20:18 | 51.07946 | 19.91296 | 9471 ft | 276 kts | 8° |
| 2026-05-04 20:19 | 51.09834 | 19.91876 | 9472 ft | 276 kts | 7° |
| 2026-05-04 20:19 | 51.11697 | 19.92446 | 9472 ft | 276 kts | 7° |
| 2026-05-04 20:19 | 51.13611 | 19.93034 | 9471 ft | 276 kts | 8° |
| 2026-05-04 20:19 | 51.15476 | 19.93609 | 9466 ft | 276 kts | 7° |
| 2026-05-04 20:20 | 51.17366 | 19.94189 | 9469 ft | 276 kts | 8° |
| 2026-05-04 20:20 | 51.19255 | 19.94773 | 9470 ft | 276 kts | 8° |
| 2026-05-04 20:20 | 51.21146 | 19.95358 | 9467 ft | 276 kts | 8° |
| 2026-05-04 20:20 | 51.23022 | 19.96013 | 9466 ft | 277 kts | 13° |
| 2026-05-04 20:21 | 51.24876 | 19.96927 | 9519 ft | 279 kts | 14° |
| 2026-05-04 20:21 | 51.26739 | 19.97853 | 9520 ft | 281 kts | 14° |
| 2026-05-04 20:21 | 51.30455 | 19.99653 | 9469 ft | 279 kts | 14° |
| 2026-05-04 20:22 | 51.32317 | 20.00560 | 9462 ft | 280 kts | 14° |
| 2026-05-04 20:22 | 51.34160 | 20.01456 | 9465 ft | 281 kts | 14° |
| 2026-05-04 20:22 | 51.36025 | 20.02366 | 9465 ft | 281 kts | 14° |
| 2026-05-04 20:22 | 51.37904 | 20.03283 | 9465 ft | 281 kts | 14° |
| 2026-05-04 20:23 | 51.39779 | 20.04196 | 9468 ft | 281 kts | 14° |
| 2026-05-04 20:23 | 51.41646 | 20.05111 | 9467 ft | 279 kts | 14° |
| 2026-05-04 20:23 | 51.43507 | 20.06024 | 9461 ft | 279 kts | 14° |
| 2026-05-04 20:23 | 51.45361 | 20.06930 | 9461 ft | 279 kts | 14° |
| 2026-05-04 20:24 | 51.47215 | 20.07841 | 9467 ft | 279 kts | 14° |
| 2026-05-04 20:24 | 51.49074 | 20.08751 | 9465 ft | 278 kts | 14° |
| 2026-05-04 20:24 | 51.50899 | 20.09647 | 9465 ft | 278 kts | 14° |
| 2026-05-04 20:24 | 51.52751 | 20.10557 | 9462 ft | 279 kts | 14° |
| 2026-05-04 20:25 | 51.54617 | 20.11472 | 9463 ft | 280 kts | 14° |
| 2026-05-04 20:25 | 51.56483 | 20.12392 | 9463 ft | 281 kts | 14° |
| 2026-05-04 20:25 | 51.58349 | 20.13311 | 9463 ft | 281 kts | 14° |
| 2026-05-04 20:25 | 51.60223 | 20.14232 | 9464 ft | 281 kts | 14° |
| 2026-05-04 20:26 | 51.62100 | 20.15163 | 9458 ft | 281 kts | 14° |
| 2026-05-04 20:26 | 51.63973 | 20.16087 | 9458 ft | 281 kts | 14° |
| 2026-05-04 20:26 | 51.65847 | 20.17014 | 9458 ft | 281 kts | 14° |
| 2026-05-04 20:26 | 51.67720 | 20.17942 | 9458 ft | 281 kts | 14° |
| 2026-05-04 20:27 | 51.69588 | 20.18864 | 9461 ft | 281 kts | 14° |
| 2026-05-04 20:27 | 51.71454 | 20.19790 | 9458 ft | 280 kts | 14° |
| 2026-05-04 20:27 | 51.73295 | 20.20701 | 9458 ft | 280 kts | 14° |
| 2026-05-04 20:27 | 51.75156 | 20.21625 | 9458 ft | 280 kts | 14° |
| 2026-05-04 20:28 | 51.77012 | 20.22547 | 9458 ft | 279 kts | 14° |
| 2026-05-04 20:28 | 51.78871 | 20.23472 | 9457 ft | 279 kts | 14° |
| 2026-05-04 20:28 | 51.80731 | 20.24398 | 9457 ft | 279 kts | 14° |
| 2026-05-04 20:28 | 51.82589 | 20.25326 | 9457 ft | 279 kts | 14° |
| 2026-05-04 20:29 | 51.84447 | 20.26252 | 9457 ft | 278 kts | 14° |
| 2026-05-04 20:29 | 51.86301 | 20.27177 | 9457 ft | 278 kts | 14° |
| 2026-05-04 20:29 | 51.88147 | 20.28099 | 9454 ft | 278 kts | 14° |
| 2026-05-04 20:29 | 51.89996 | 20.29020 | 9454 ft | 278 kts | 14° |
| 2026-05-04 20:30 | 51.91828 | 20.29939 | 9458 ft | 279 kts | 14° |
| 2026-05-04 20:30 | 51.93684 | 20.30868 | 9458 ft | 279 kts | 14° |
| 2026-05-04 20:30 | 51.95544 | 20.31798 | 9455 ft | 280 kts | 14° |
| 2026-05-04 20:30 | 51.97409 | 20.32736 | 9451 ft | 280 kts | 14° |
| 2026-05-04 20:31 | 51.99279 | 20.33675 | 9450 ft | 281 kts | 14° |
| 2026-05-04 20:31 | 52.01149 | 20.34612 | 9450 ft | 281 kts | 14° |
| 2026-05-04 20:31 | 52.02998 | 20.35532 | 9451 ft | 281 kts | 14° |
| 2026-05-04 20:31 | 52.04861 | 20.36473 | 9451 ft | 281 kts | 14° |
| 2026-05-04 20:32 | 52.06736 | 20.37417 | 9452 ft | 281 kts | 14° |
| 2026-05-04 20:32 | 52.08599 | 20.38356 | 9453 ft | 281 kts | 14° |
| 2026-05-04 20:32 | 52.10469 | 20.39299 | 9453 ft | 281 kts | 14° |
| 2026-05-04 20:32 | 52.12342 | 20.40245 | 9453 ft | 281 kts | 14° |
| 2026-05-04 20:33 | 52.14209 | 20.41191 | 9453 ft | 281 kts | 14° |
| 2026-05-04 20:33 | 52.16082 | 20.42138 | 9452 ft | 281 kts | 14° |
| 2026-05-04 20:33 | 52.17927 | 20.43072 | 9452 ft | 281 kts | 14° |
| 2026-05-04 20:33 | 52.19794 | 20.44022 | 9453 ft | 281 kts | 14° |
| 2026-05-04 20:34 | 52.21667 | 20.44970 | 9450 ft | 282 kts | 14° |
| 2026-05-04 20:34 | 52.23433 | 20.45876 | 8428 ft | 258 kts | 14° |
| 2026-05-04 20:34 | 52.25183 | 20.46757 | 6656 ft | 264 kts | 15° |
| 2026-05-04 20:34 | 52.26912 | 20.47635 | 5149 ft | 255 kts | 15° |
| 2026-05-04 20:35 | 52.28581 | 20.48487 | 3780 ft | 248 kts | 16° |
| 2026-05-04 20:35 | 52.30124 | 20.49276 | 3662 ft | 233 kts | 16° |
| 2026-05-04 20:35 | 52.31742 | 20.50096 | 3423 ft | 245 kts | 16° |
| 2026-05-04 20:35 | 52.33353 | 20.50918 | 3113 ft | 239 kts | 16° |
| 2026-05-04 20:36 | 52.34875 | 20.51699 | 2808 ft | 217 kts | 16° |
| 2026-05-04 20:36 | 52.36243 | 20.52399 | 2535 ft | 194 kts | 16° |
| 2026-05-04 20:36 | 52.37452 | 20.53018 | 2299 ft | 172 kts | 15° |
| 2026-05-04 20:36 | 52.38547 | 20.53590 | 2082 ft | 158 kts | 18° |
| 2026-05-04 20:37 | 52.39498 | 20.54400 | 1853 ft | 151 kts | 28° |
| 2026-05-04 20:37 | 52.40327 | 20.55378 | 1610 ft | 148 kts | 51° |
| 2026-05-04 20:37 | 52.40520 | 20.57013 | 1414 ft | 145 kts | 92° |
| 2026-05-04 20:37 | 52.40767 | 20.58406 | 1395 ft | 123 kts | 41° |
| 2026-05-04 20:38 | 52.41263 | 20.59407 | 1418 ft | 107 kts | 65° |
| 2026-05-04 20:38 | 52.41534 | 20.60478 | 1457 ft | 100 kts | 59° |
| 2026-05-04 20:38 | 52.41840 | 20.61529 | 1465 ft | 104 kts | 63° |
| 2026-05-04 20:38 | 52.42143 | 20.62619 | 1479 ft | 105 kts | 61° |
| 2026-05-04 20:39 | 52.42441 | 20.63713 | 1477 ft | 104 kts | 62° |
| 2026-05-04 20:39 | 52.42739 | 20.64789 | 1484 ft | 102 kts | 59° |
| 2026-05-04 20:39 | 52.43005 | 20.65859 | 1480 ft | 102 kts | 68° |
| 2026-05-04 20:39 | 52.43208 | 20.66960 | 1479 ft | 100 kts | 65° |
| 2026-05-04 20:40 | 52.43425 | 20.68035 | 1488 ft | 95 kts | 66° |
| 2026-05-04 20:40 | 52.43619 | 20.69018 | 1480 ft | 89 kts | 64° |
| 2026-05-04 20:40 | 52.43816 | 20.70023 | 1483 ft | 96 kts | 67° |
| 2026-05-04 20:40 | 52.44020 | 20.71062 | 1483 ft | 98 kts | 66° |
| 2026-05-04 20:41 | 52.44223 | 20.72115 | 1483 ft | 96 kts | 66° |
| 2026-05-04 20:41 | 52.44427 | 20.73148 | 1479 ft | 95 kts | 67° |
| 2026-05-04 20:41 | 52.44623 | 20.74185 | 1476 ft | 96 kts | 66° |
| 2026-05-04 20:41 | 52.45011 | 20.74977 | 1474 ft | 89 kts | 14° |
| 2026-05-04 20:42 | 52.45613 | 20.74884 | 1481 ft | 90 kts | 333° |
| 2026-05-04 20:42 | 52.45938 | 20.74056 | 1444 ft | 85 kts | 282° |
| 2026-05-04 20:42 | 52.45848 | 20.73066 | 1151 ft | 84 kts | 264° |
| 2026-05-04 20:42 | 52.45770 | 20.72140 | 919 ft | 78 kts | 264° |
| 2026-05-04 20:43 | 52.45687 | 20.71257 | 848 ft | 88 kts | 265° |
| 2026-05-04 20:43 | 52.45593 | 20.70181 | 771 ft | 97 kts | 262° |
| 2026-05-04 20:43 | 52.45492 | 20.69110 | 635 ft | 96 kts | 262° |
| 2026-05-04 20:43 | 52.45389 | 20.68023 | 500 ft | 96 kts | 262° |
| 2026-05-04 20:44 | 52.45289 | 20.66948 | 370 ft | 95 kts | 261° |
| 2026-05-04 20:44 | 52.45201 | 20.66032 | 333 ft | 69 kts | 261° |
| 2026-05-04 20:44 | 52.45158 | 20.65567 | 334 ft | 56 kts | 261° |
| 2026-05-04 20:44 | 52.45103 | 20.64981 | 331 ft | 49 kts | 262° |
| 2026-05-04 20:45 | 52.45052 | 20.64463 | 330 ft | 38 kts | 251° |
| 2026-05-04 20:45 | 52.44891 | 20.64382 | 332 ft | 2 kts | 182° |
| 2026-05-04 20:45 | 52.44890 | 20.64382 | 332 ft | 0 kts | 182° |
| 2026-05-04 20:46 | 52.44832 | 20.64372 | 332 ft | 12 kts | 188° |
| 2026-05-04 20:46 | 52.44735 | 20.64370 | 330 ft | 15 kts | 163° |
| 2026-05-04 20:46 | 52.44722 | 20.64545 | 331 ft | 20 kts | 83° |
| 2026-05-04 20:46 | 52.44742 | 20.64802 | 332 ft | 26 kts | 81° |
| 2026-05-04 20:47 | 52.44777 | 20.65106 | 332 ft | 27 kts | 81° |
| 2026-05-04 20:47 | 52.44803 | 20.65401 | 332 ft | 25 kts | 81° |
| 2026-05-04 20:47 | 52.44827 | 20.65658 | 332 ft | 21 kts | 81° |
| 2026-05-04 20:47 | 52.44849 | 20.65900 | 332 ft | 23 kts | 81° |
| 2026-05-04 20:48 | 52.44876 | 20.66182 | 332 ft | 28 kts | 81° |
| 2026-05-04 20:48 | 52.44906 | 20.66509 | 332 ft | 30 kts | 82° |
| 2026-05-04 20:48 | 52.44894 | 20.66714 | 331 ft | 10 kts | 188° |
| 2026-05-04 20:48 | 52.44884 | 20.66699 | 331 ft | 4 kts | 230° |
| 2026-05-04 20:49 | 52.44879 | 20.66628 | 332 ft | 6 kts | 307° |
| 2026-05-04 20:49 | 52.44888 | 20.66624 | 331 ft | 0 kts | 350° |